Sarasota Bradenton International Airport

Date: 2024-06-11 07:34:00Z

Type: SPECI

Weather: Light Rain

Winds: Winds Calm

Visibility: 5

Ceiling (AGL FT): Clouds SCATTERED at 2700, BROKEN at 4900, OVERCAST at 11000, OVERCAST at 6000

RAW METAR: KSRQ 110734Z AUTO 00000KT 5SM -RA BR SCT027 BKN049 OVC110 25/24 A2987 RMK AO2 LTG DSNT SW P0024 T02500239

project-image